Time;durP1;ratioP1;P1;durP2;ratioP2;P2;SDS_P1;SDS_P2;PMS_P1;PMS_P2;Temp;Humidity;BMP_temperature;BMP_pressure;BME280_temperature;BME280_humidity;BME280_pressure;Samples;Min_cycle;Max_cycle;Signal;HPM_P1;HPM_P2
2023/11/04 00:01:52;;;;;;;8.55;4.15;;;;;;;7.09;100.00;98517.66;4996405;28;20034;-79
2023/11/04 00:04:18;;;;;;;7.50;3.58;;;;;;;7.11;100.00;98521.78;4996160;28;20030;-79
2023/11/04 00:06:43;;;;;;;6.70;3.60;;;;;;;7.13;100.00;98518.97;4996355;28;20450;-80
2023/11/04 00:09:09;;;;;;;7.57;3.60;;;;;;;7.14;100.00;98513.50;4996111;28;20033;-79
2023/11/04 00:11:34;;;;;;;7.10;3.97;;;;;;;7.18;100.00;98508.66;4995166;28;20038;-79
2023/11/04 00:13:59;;;;;;;5.28;4.05;;;;;;;7.20;100.00;98515.44;4994820;28;20026;-78
2023/11/04 00:16:25;;;;;;;7.97;3.60;;;;;;;7.21;100.00;98513.59;4996026;28;20513;-79
2023/11/04 00:18:50;;;;;;;6.88;3.80;;;;;;;7.23;100.00;98514.28;4994894;28;20022;-78
2023/11/04 00:21:16;;;;;;;7.85;3.85;;;;;;;7.24;100.00;98503.53;4995884;28;20080;-79
2023/11/04 00:23:41;;;;;;;8.05;3.85;;;;;;;7.31;100.00;98510.75;4996022;28;20033;-77
2023/11/04 00:26:07;;;;;;;7.13;3.70;;;;;;;7.36;100.00;98508.41;4995900;28;20031;-79
2023/11/04 00:28:33;;;;;;;6.43;4.00;;;;;;;7.38;100.00;98503.78;4995550;28;20041;-77
2023/11/04 00:30:58;;;;;;;5.47;3.30;;;;;;;7.34;100.00;98495.34;4995325;28;20379;-78
2023/11/04 00:33:24;;;;;;;6.60;3.30;;;;;;;7.36;100.00;98495.16;4994401;28;20402;-78
2023/11/04 00:35:50;;;;;;;7.35;3.17;;;;;;;7.33;100.00;98496.38;4994392;28;20037;-76
2023/11/04 00:38:15;;;;;;;7.10;4.32;;;;;;;7.36;100.00;98496.00;4995511;28;20037;-81
2023/11/04 00:40:42;;;;;;;12.77;3.72;;;;;;;7.35;100.00;98494.34;4995738;28;20030;-80
2023/11/04 00:43:08;;;;;;;11.07;3.45;;;;;;;7.37;100.00;98499.47;4994300;28;20027;-79
2023/11/04 00:45:33;;;;;;;4.63;3.60;;;;;;;7.37;100.00;98508.22;4995612;28;20058;-80
2023/11/04 00:47:59;;;;;;;6.63;3.53;;;;;;;7.40;100.00;98502.59;4994419;28;20136;-79
2023/11/04 00:50:25;;;;;;;5.93;3.20;;;;;;;7.40;100.00;98507.91;4995286;28;20462;-79
2023/11/04 00:52:51;;;;;;;5.97;3.55;;;;;;;7.43;100.00;98506.69;4994159;28;20117;-79
2023/11/04 00:55:17;;;;;;;5.47;3.65;;;;;;;7.44;100.00;98511.00;4994698;28;20121;-79
2023/11/04 00:57:42;;;;;;;8.93;4.00;;;;;;;7.41;100.00;98514.81;4995078;28;20050;-78
2023/11/04 01:00:09;;;;;;;8.15;3.35;;;;;;;7.43;100.00;98508.53;4994317;28;20497;-79
2023/11/04 01:02:34;;;;;;;5.07;3.53;;;;;;;7.41;100.00;98506.06;4995305;28;20030;-79
2023/11/04 01:05:00;;;;;;;6.93;3.60;;;;;;;7.43;100.00;98513.81;4995305;28;20036;-79
2023/11/04 01:07:25;;;;;;;5.25;3.70;;;;;;;7.45;100.00;98512.66;4994802;28;20481;-78
2023/11/04 01:09:51;;;;;;;7.05;3.95;;;;;;;7.45;100.00;98517.94;4993553;28;20022;-78
2023/11/04 01:12:16;;;;;;;6.90;3.92;;;;;;;7.47;100.00;98509.84;4994957;28;20022;-78
2023/11/04 01:14:41;;;;;;;8.38;4.13;;;;;;;7.47;100.00;98509.84;4995173;28;20026;-79
2023/11/04 01:17:07;;;;;;;7.05;3.90;;;;;;;7.50;100.00;98518.22;4993820;28;20066;-79
2023/11/04 01:19:32;;;;;;;6.25;4.45;;;;;;;7.52;100.00;98518.88;4994018;28;20038;-78
2023/11/04 01:21:57;;;;;;;7.38;4.32;;;;;;;7.56;100.00;98511.41;4994997;28;20033;-78
2023/11/04 01:24:23;;;;;;;7.68;4.35;;;;;;;7.57;100.00;98503.31;4993853;28;20026;-78
2023/11/04 01:26:52;;;;;;;7.47;4.78;;;;;;;7.59;100.00;98514.53;4994642;28;20030;-80
2023/11/04 01:29:18;;;;;;;6.82;4.28;;;;;;;7.64;100.00;98510.53;4995244;28;20091;-77
2023/11/04 01:31:44;;;;;;;8.98;5.18;;;;;;;7.66;100.00;98504.06;4994300;28;20105;-78
2023/11/04 01:34:10;;;;;;;11.75;4.80;;;;;;;7.67;100.00;98496.94;4993835;28;20045;-78
2023/11/04 01:36:36;;;;;;;10.40;4.72;;;;;;;7.67;100.00;98504.88;4994592;28;20113;-77
2023/11/04 01:39:02;;;;;;;8.30;4.72;;;;;;;7.69;100.00;98502.91;4992668;28;20125;-77
2023/11/04 01:41:27;;;;;;;16.33;5.13;;;;;;;7.68;100.00;98502.06;4993225;28;20343;-77
2023/11/04 01:43:53;;;;;;;10.13;5.05;;;;;;;7.69;100.00;98505.53;4994796;28;20034;-78
2023/11/04 01:46:22;;;;;;;8.70;4.95;;;;;;;7.69;100.00;98501.06;4994428;28;20066;-78
2023/11/04 01:48:48;;;;;;;6.07;4.35;;;;;;;7.71;100.00;98498.25;4994370;28;20344;-77
2023/11/04 01:51:15;;;;;;;8.30;4.70;;;;;;;7.71;100.00;98499.06;4992555;28;20026;-77
2023/11/04 01:53:47;;;;;;;9.65;5.88;;;;;;;7.70;100.00;98499.22;4994597;28;20071;-78
2023/11/04 01:56:16;;;;;;;5.72;4.63;;;;;;;7.70;100.00;98483.34;4992670;28;20098;-78
2023/11/04 01:58:45;;;;;;;6.75;5.00;;;;;;;7.70;100.00;98492.13;4994174;28;20026;-78
2023/11/04 02:01:11;;;;;;;10.07;4.78;;;;;;;7.70;100.00;98486.84;4994397;28;20033;-79
2023/11/04 02:03:36;;;;;;;13.77;5.10;;;;;;;7.69;100.00;98487.00;4994482;28;20374;-78
2023/11/04 02:06:02;;;;;;;9.30;5.22;;;;;;;7.70;100.00;98489.47;4993449;28;20038;-77
2023/11/04 02:08:27;;;;;;;9.55;5.47;;;;;;;7.70;100.00;98484.19;4993899;28;20350;-78
2023/11/04 02:10:52;;;;;;;9.23;5.35;;;;;;;7.69;100.00;98487.84;4994086;28;20026;-78
2023/11/04 02:13:18;;;;;;;10.23;5.30;;;;;;;7.67;100.00;98484.50;4993965;28;20343;-77
2023/11/04 02:15:43;;;;;;;10.68;5.35;;;;;;;7.66;100.00;98490.84;4992899;28;20034;-76
2023/11/04 02:18:08;;;;;;;6.45;4.70;;;;;;;7.66;100.00;98490.84;4992609;28;20038;-76
2023/11/04 02:20:35;;;;;;;9.07;5.50;;;;;;;7.65;100.00;98486.53;4994633;28;20031;-79
2023/11/04 02:23:01;;;;;;;13.50;5.32;;;;;;;7.63;100.00;98487.69;4992949;28;20370;-77
2023/11/04 02:25:36;;;;;;;7.72;5.30;;;;;;;7.65;100.00;98491.00;4994147;28;20027;-77
2023/11/04 02:28:01;;;;;;;9.73;4.93;;;;;;;7.64;100.00;98494.66;4994512;28;20034;-77
2023/11/04 02:30:26;;;;;;;13.70;4.88;;;;;;;7.68;100.00;98491.47;4994082;28;20105;-78
2023/11/04 02:32:52;;;;;;;12.02;5.50;;;;;;;7.65;100.00;98493.66;4993968;28;20038;-78
2023/11/04 02:35:18;;;;;;;10.82;5.22;;;;;;;7.62;100.00;98483.44;4992521;28;20113;-76
2023/11/04 02:37:44;;;;;;;11.80;5.75;;;;;;;7.55;100.00;98478.00;4993839;28;20446;-77
2023/11/04 02:40:10;;;;;;;9.88;5.65;;;;;;;7.51;100.00;98484.66;4993389;28;20034;-76
2023/11/04 02:42:35;;;;;;;9.70;6.00;;;;;;;7.48;100.00;98472.63;4993770;28;20033;-78
2023/11/04 02:45:02;;;;;;;8.75;5.68;;;;;;;7.44;100.00;98473.97;4993845;28;20027;-77
2023/11/04 02:47:28;;;;;;;11.35;5.75;;;;;;;7.41;100.00;98471.66;4992668;28;20053;-76
2023/11/04 02:49:53;;;;;;;15.05;5.50;;;;;;;7.38;100.00;98470.19;4993886;28;20069;-77
2023/11/04 02:52:18;;;;;;;10.80;5.70;;;;;;;7.38;100.00;98469.38;4993806;28;20530;-77
2023/11/04 02:54:44;;;;;;;12.50;4.57;;;;;;;7.36;100.00;98461.63;4993705;28;20155;-77
2023/11/04 02:57:10;;;;;;;10.57;4.78;;;;;;;7.32;100.00;98462.97;4993791;28;20047;-78
2023/11/04 02:59:36;;;;;;;10.20;4.60;;;;;;;7.30;100.00;98454.41;4992677;28;20113;-76
2023/11/04 03:02:02;;;;;;;4.88;4.38;;;;;;;7.30;100.00;98464.13;4992429;28;20061;-77
2023/11/04 03:04:27;;;;;;;7.07;4.25;;;;;;;7.21;100.00;98453.63;4996920;28;20065;-77
2023/11/04 03:06:52;;;;;;;11.75;4.88;;;;;;;7.16;100.00;98455.94;4997489;28;20034;-77
2023/11/04 03:09:17;;;;;;;11.82;4.40;;;;;;;7.15;100.00;98453.47;4995514;28;20034;-77
2023/11/04 03:11:43;;;;;;;12.38;4.40;;;;;;;7.09;100.00;98440.97;4996362;28;20068;-76
2023/11/04 03:14:08;;;;;;;8.23;4.32;;;;;;;7.02;100.00;98441.66;4997059;28;20030;-77
2023/11/04 03:16:34;;;;;;;10.48;4.35;;;;;;;6.98;100.00;98448.28;4997117;28;20474;-78
2023/11/04 03:18:59;;;;;;;11.50;4.80;;;;;;;6.96;100.00;98449.50;4995867;28;20347;-77
2023/11/04 03:21:25;;;;;;;10.75;4.75;;;;;;;6.95;100.00;98445.19;4997331;28;20069;-78
2023/11/04 03:23:51;;;;;;;13.63;5.13;;;;;;;6.94;100.00;98446.19;4997073;28;20037;-77
2023/11/04 03:26:18;;;;;;;9.02;5.00;;;;;;;6.97;100.00;98454.59;4979144;28;20023;-78
2023/11/04 03:28:44;;;;;;;16.48;4.88;;;;;;;6.96;100.00;98439.72;4997022;28;20034;-76
2023/11/04 03:31:09;;;;;;;12.13;5.07;;;;;;;6.98;100.00;98450.13;4997182;28;20346;-76
2023/11/04 03:33:34;;;;;;;8.20;4.82;;;;;;;7.01;100.00;98447.13;4996808;28;20054;-77
2023/11/04 03:36:00;;;;;;;11.55;4.85;;;;;;;7.04;100.00;98454.72;4997030;28;20030;-76
2023/11/04 03:38:26;;;;;;;10.85;5.70;;;;;;;7.07;100.00;98444.59;4996538;28;20026;-75
2023/11/04 03:40:51;;;;;;;12.50;5.72;;;;;;;7.10;100.00;98438.16;4996954;28;20450;-77
2023/11/04 03:43:16;;;;;;;12.23;6.55;;;;;;;7.14;100.00;98442.09;4995444;28;20031;-77
2023/11/04 03:45:42;;;;;;;14.18;6.28;;;;;;;7.20;100.00;98441.38;4996957;28;20505;-78
2023/11/04 03:48:07;;;;;;;12.45;7.43;;;;;;;7.22;100.00;98423.50;4995234;28;20038;-76
2023/11/04 03:50:33;;;;;;;14.93;7.15;;;;;;;7.24;100.00;98431.28;4996188;28;20080;-76
2023/11/04 03:52:58;;;;;;;9.85;7.68;;;;;;;7.24;100.00;98431.28;4996708;28;20022;-77
2023/11/04 03:55:24;;;;;;;16.08;8.27;;;;;;;7.24;100.00;98431.28;4996762;28;20030;-77
2023/11/04 03:57:49;;;;;;;14.57;8.30;;;;;;;7.22;100.00;98407.63;4994774;28;20055;-75
2023/11/04 04:00:15;;;;;;;12.55;8.00;;;;;;;7.28;100.00;98416.69;4994765;28;20117;-76
2023/11/04 04:02:41;;;;;;;19.90;9.18;;;;;;;7.29;100.00;98418.34;4996508;28;20026;-77
2023/11/04 04:05:07;;;;;;;17.33;8.10;;;;;;;7.31;100.00;98416.34;4995294;28;20045;-77
2023/11/04 04:07:33;;;;;;;16.48;8.32;;;;;;;7.30;100.00;98411.22;4996377;28;20061;-76
2023/11/04 04:09:59;;;;;;;11.05;7.45;;;;;;;7.28;100.00;98407.94;4996097;28;20030;-76
2023/11/04 04:12:24;;;;;;;16.10;8.40;;;;;;;7.27;100.00;98409.78;4994486;28;20031;-78
2023/11/04 04:14:49;;;;;;;11.30;7.70;;;;;;;7.26;100.00;98407.31;4996021;28;20037;-76
2023/11/04 04:17:15;;;;;;;17.27;8.43;;;;;;;7.24;100.00;98403.00;4996073;28;20029;-77
2023/11/04 04:19:40;;;;;;;12.73;7.35;;;;;;;7.26;100.00;98408.13;4994664;28;20026;-77
2023/11/04 04:22:06;;;;;;;12.65;8.00;;;;;;;7.28;100.00;98410.59;4994635;28;20544;-77
2023/11/04 04:24:32;;;;;;;14.48;8.00;;;;;;;7.29;100.00;98399.84;4995844;28;20035;-77
2023/11/04 04:26:57;;;;;;;12.07;8.07;;;;;;;7.30;100.00;98396.19;4994560;28;20121;-77
2023/11/04 04:29:23;;;;;;;13.88;7.55;;;;;;;7.30;100.00;98396.19;4995948;28;20040;-77
2023/11/04 04:31:51;;;;;;;16.65;8.65;;;;;;;7.29;100.00;98399.03;4994485;28;20062;-76
2023/11/04 04:34:17;;;;;;;16.05;8.52;;;;;;;7.28;100.00;98398.19;4995570;28;20053;-76
2023/11/04 04:36:45;;;;;;;18.08;9.25;;;;;;;7.27;100.00;98395.72;4995907;28;20034;-75
2023/11/04 04:39:11;;;;;;;16.63;8.45;;;;;;;7.25;100.00;98395.88;4995406;28;20053;-76
2023/11/04 04:41:36;;;;;;;10.90;7.85;;;;;;;7.26;100.00;98389.59;4995580;28;20030;-77
2023/11/04 04:44:02;;;;;;;12.38;8.23;;;;;;;7.28;100.00;98384.94;4995279;28;20035;-77
2023/11/04 04:46:29;;;;;;;12.60;8.73;;;;;;;7.27;100.00;98380.69;4994383;28;20034;-75
2023/11/04 04:48:55;;;;;;;10.75;7.55;;;;;;;7.28;100.00;98387.59;4994640;28;20057;-77
2023/11/04 04:51:21;;;;;;;19.13;8.95;;;;;;;7.29;100.00;98381.31;4996111;28;20033;-76
2023/11/04 04:53:46;;;;;;;13.82;7.90;;;;;;;7.29;100.00;98383.97;4995326;28;20026;-77
2023/11/04 04:56:14;;;;;;;20.75;8.77;;;;;;;7.23;100.00;98380.19;4995479;28;20370;-78
2023/11/04 04:58:41;;;;;;;13.05;7.80;;;;;;;7.12;100.00;98372.69;4995874;28;20065;-75
2023/11/04 05:01:16;;;;;;;15.88;7.72;;;;;;;7.00;100.00;98371.44;4995221;28;20111;-77
2023/11/04 05:03:42;;;;;;;13.77;7.43;;;;;;;6.93;100.00;98365.25;4995378;28;20057;-77
2023/11/04 05:06:07;;;;;;;14.82;7.53;;;;;;;6.85;100.00;98371.38;4994893;28;20026;-76
2023/11/04 05:08:32;;;;;;;13.52;8.63;;;;;;;6.81;100.00;98359.53;4995196;28;20062;-77
2023/11/04 05:10:58;;;;;;;8.98;7.03;;;;;;;6.78;100.00;98359.91;4994569;28;20431;-78
2023/11/04 05:13:24;;;;;;;11.52;8.02;;;;;;;6.70;100.00;98366.03;4994572;28;20027;-77
2023/11/04 05:15:50;;;;;;;16.60;7.88;;;;;;;6.68;100.00;98353.00;4994885;28;20146;-77
2023/11/04 05:18:17;;;;;;;18.80;8.57;;;;;;;6.67;100.00;98346.09;4994808;28;20497;-77
2023/11/04 05:20:42;;;;;;;15.43;8.52;;;;;;;6.63;100.00;98346.59;4994471;28;20036;-77
2023/11/04 05:23:08;;;;;;;13.70;8.27;;;;;;;6.59;100.00;98355.88;4995073;28;20030;-76
2023/11/04 05:25:33;;;;;;;15.68;8.10;;;;;;;6.58;100.00;98351.56;4994552;28;20038;-76
2023/11/04 05:27:58;;;;;;;17.30;8.43;;;;;;;6.61;100.00;98338.81;4994640;28;20037;-77
2023/11/04 05:30:25;;;;;;;14.95;8.88;;;;;;;6.61;100.00;98336.19;4994926;28;20033;-78
2023/11/04 05:32:51;;;;;;;18.45;8.40;;;;;;;6.61;100.00;98338.81;4994545;28;20104;-78
2023/11/04 05:35:17;;;;;;;16.65;8.07;;;;;;;6.66;100.00;98330.41;4994611;28;20509;-78
2023/11/04 05:37:43;;;;;;;22.77;8.05;;;;;;;6.63;100.00;98326.28;4994423;28;20465;-77
2023/11/04 05:40:09;;;;;;;13.10;7.10;;;;;;;6.60;100.00;98336.34;4994317;28;20031;-78
2023/11/04 05:42:34;;;;;;;15.27;7.30;;;;;;;6.58;100.00;98330.44;4994136;28;20030;-78
2023/11/04 05:45:00;;;;;;;12.32;6.60;;;;;;;6.54;100.00;98319.41;4994704;28;20030;-77
2023/11/04 05:47:25;;;;;;;14.25;6.80;;;;;;;6.45;100.00;98310.72;4994313;28;20038;-79
2023/11/04 05:49:51;;;;;;;15.43;6.60;;;;;;;6.41;100.00;98313.88;4994390;28;20034;-78
2023/11/04 05:52:16;;;;;;;20.58;7.00;;;;;;;6.40;100.00;98309.56;4993220;28;20031;-77
2023/11/04 05:54:41;;;;;;;19.90;6.95;;;;;;;6.42;100.00;98308.41;4994211;28;20435;-78
2023/11/04 05:57:07;;;;;;;15.30;7.13;;;;;;;6.46;100.00;98304.41;4994220;28;20126;-77
2023/11/04 05:59:32;;;;;;;17.30;7.28;;;;;;;6.56;100.00;98306.03;4994068;28;20326;-76
2023/11/04 06:01:57;;;;;;;17.13;7.55;;;;;;;6.65;100.00;98307.59;4994270;28;20088;-77
2023/11/04 06:04:23;;;;;;;20.58;8.23;;;;;;;6.74;100.00;98300.44;4993910;28;20026;-76
2023/11/04 06:06:48;;;;;;;21.38;7.72;;;;;;;6.79;100.00;98300.72;4993925;28;20026;-77
2023/11/04 06:09:13;;;;;;;17.80;7.90;;;;;;;6.80;100.00;98289.16;4993353;28;20034;-77
2023/11/04 06:11:39;;;;;;;15.93;7.28;;;;;;;6.83;100.00;98288.81;4993877;28;20030;-76
2023/11/04 06:14:05;;;;;;;15.02;6.85;;;;;;;6.82;100.00;98279.22;4994674;28;20113;-78
2023/11/04 06:16:34;;;;;;;12.40;7.78;;;;;;;6.82;100.00;98276.59;4994478;28;20030;-80
2023/11/04 06:19:00;;;;;;;17.52;8.70;;;;;;;6.77;100.00;98271.84;4994984;28;20034;-78
2023/11/04 06:21:25;;;;;;;14.40;7.63;;;;;;;6.72;100.00;98268.91;4992948;28;20374;-77
2023/11/04 06:23:50;;;;;;;17.27;8.07;;;;;;;6.67;100.00;98268.59;4992520;28;20466;-78
2023/11/04 06:26:22;;;;;;;19.98;8.90;;;;;;;6.65;100.00;98273.25;4992816;28;20411;-78
2023/11/04 06:28:48;;;;;;;14.40;8.43;;;;;;;6.65;100.00;98270.63;4994639;28;20081;-77
2023/11/04 06:31:14;;;;;;;22.58;9.00;;;;;;;6.67;100.00;98258.88;4992709;28;20022;-77
2023/11/04 06:33:40;;;;;;;14.95;8.52;;;;;;;6.66;100.00;98257.22;4993629;28;20064;-77
2023/11/04 06:36:05;;;;;;;16.80;8.60;;;;;;;6.68;100.00;98257.03;4992657;28;20455;-78
2023/11/04 06:38:31;;;;;;;23.30;8.68;;;;;;;6.62;100.00;98244.53;4997092;28;20485;-76
2023/11/04 06:40:56;;;;;;;19.88;8.20;;;;;;;6.56;100.00;98245.25;4997084;28;20118;-78
2023/11/04 06:43:22;;;;;;;12.77;8.05;;;;;;;6.50;100.00;98246.78;4996801;28;20027;-77
2023/11/04 06:45:47;;;;;;;25.08;8.60;;;;;;;6.50;100.00;98257.34;4997591;28;20034;-79
2023/11/04 06:48:12;;;;;;;17.98;7.90;;;;;;;6.50;100.00;98252.88;4997585;28;20038;-77
2023/11/04 06:50:38;;;;;;;17.75;7.70;;;;;;;6.52;100.00;98256.19;4996618;28;20031;-77
2023/11/04 06:53:03;;;;;;;20.33;7.40;;;;;;;6.58;100.00;98267.84;4996151;28;20589;-77
2023/11/04 06:55:32;;;;;;;20.20;7.63;;;;;;;6.61;100.00;98256.09;4998107;28;20044;-77
2023/11/04 06:57:58;;;;;;;11.73;7.20;;;;;;;6.63;100.00;98256.78;4995890;28;20043;-77
2023/11/04 07:00:24;;;;;;;16.92;7.13;;;;;;;6.66;100.00;98267.78;4997431;28;20363;-76
2023/11/04 07:02:49;;;;;;;20.75;6.88;;;;;;;6.71;100.00;98261.97;4997066;28;20070;-77
2023/11/04 07:05:15;;;;;;;14.13;6.40;;;;;;;6.78;100.00;98264.75;4997421;28;20026;-78
2023/11/04 07:07:40;;;;;;;11.05;5.72;;;;;;;6.81;100.00;98257.28;4997069;28;20377;-76
2023/11/04 07:10:08;;;;;;;11.13;5.53;;;;;;;6.87;100.00;98245.16;4995946;28;20457;-77
2023/11/04 07:12:34;;;;;;;13.43;5.57;;;;;;;6.89;100.00;98243.97;4996115;28;20030;-79
2023/11/04 07:15:00;;;;;;;13.80;4.85;;;;;;;6.95;100.00;98245.09;4997179;28;20072;-78
2023/11/04 07:17:25;;;;;;;12.70;5.05;;;;;;;6.99;100.00;98248.22;4997156;28;20458;-78
2023/11/04 07:19:51;;;;;;;7.43;3.97;;;;;;;7.02;100.00;98243.38;4996715;28;20030;-78
2023/11/04 07:22:17;;;;;;;10.75;4.00;;;;;;;7.06;100.00;98233.25;4995493;28;20030;-78
2023/11/04 07:24:43;;;;;;;8.77;3.88;;;;;;;7.10;100.00;98226.59;4997018;28;20038;-79
2023/11/04 07:27:08;;;;;;;12.25;3.88;;;;;;;7.11;100.00;98217.69;4995709;28;20022;-77
2023/11/04 07:29:34;;;;;;;11.23;3.63;;;;;;;7.13;100.00;98214.84;4997483;28;20038;-79
2023/11/04 07:31:59;;;;;;;11.50;3.40;;;;;;;7.16;100.00;98201.25;4997130;28;20034;-79
2023/11/04 07:34:30;;;;;;;9.52;3.33;;;;;;;7.16;100.00;98206.56;4997428;28;20030;-78
2023/11/04 07:36:56;;;;;;;7.70;2.80;;;;;;;7.20;100.00;98200.72;4997265;28;20034;-77
2023/11/04 07:39:21;;;;;;;10.10;2.95;;;;;;;7.21;100.00;98206.81;4996723;28;20117;-77
2023/11/04 07:41:48;;;;;;;7.38;3.28;;;;;;;7.22;100.00;98211.91;4996613;28;20030;-77
2023/11/04 07:44:13;;;;;;;8.38;3.00;;;;;;;7.26;100.00;98198.38;4996841;28;20030;-77
2023/11/04 07:46:40;;;;;;;13.77;3.78;;;;;;;7.27;100.00;98195.53;4996789;28;20026;-78
2023/11/04 07:49:05;;;;;;;8.60;3.70;;;;;;;7.29;100.00;98190.88;4996506;28;20030;-78
2023/11/04 07:51:31;;;;;;;7.70;3.58;;;;;;;7.30;100.00;98183.75;4997142;28;20033;-78
2023/11/04 07:53:56;;;;;;;14.38;3.42;;;;;;;7.32;100.00;98185.22;4996271;28;20085;-77
2023/11/04 07:56:22;;;;;;;12.68;3.85;;;;;;;7.33;100.00;98168.34;4995558;28;20447;-77
2023/11/04 07:58:47;;;;;;;9.50;3.60;;;;;;;7.34;100.00;98163.88;4996746;28;20350;-77
2023/11/04 08:01:19;;;;;;;14.20;3.55;;;;;;;7.37;100.00;98163.50;4995194;28;20199;-77
2023/11/04 08:03:45;;;;;;;17.50;4.45;;;;;;;7.37;100.00;98166.16;4995372;28;20038;-80
2023/11/04 08:06:11;;;;;;;13.90;4.03;;;;;;;7.37;100.00;98148.44;4997005;28;20034;-78
2023/11/04 08:08:36;;;;;;;13.43;3.97;;;;;;;7.39;100.00;98143.81;4996473;28;20355;-79
2023/11/04 08:11:03;;;;;;;15.20;4.28;;;;;;;7.43;100.00;98143.44;4997209;28;20442;-79
2023/11/04 08:13:28;;;;;;;8.80;3.97;;;;;;;7.48;100.00;98141.88;4995981;28;20026;-77
2023/11/04 08:15:53;;;;;;;9.55;4.25;;;;;;;7.56;100.00;98135.66;4997221;28;20034;-79
2023/11/04 08:18:20;;;;;;;11.32;4.00;;;;;;;7.59;100.00;98140.56;4996291;28;20502;-76
2023/11/04 08:20:47;;;;;;;8.52;3.50;;;;;;;7.55;100.00;98123.41;4995794;28;20113;-78
2023/11/04 08:23:12;;;;;;;11.55;3.95;;;;;;;7.59;100.00;98119.41;4994274;28;20470;-78
2023/11/04 08:25:37;;;;;;;7.13;3.00;;;;;;;7.62;100.00;98116.38;4995888;28;20037;-78
2023/11/04 08:28:03;;;;;;;10.18;3.55;;;;;;;7.67;100.00;98103.41;4995507;28;20425;-80
2023/11/04 08:30:29;;;;;;;13.25;4.50;;;;;;;7.65;100.00;98094.03;4995640;28;20026;-79
2023/11/04 08:32:55;;;;;;;18.30;4.25;;;;;;;7.72;100.00;98094.91;4995492;28;20030;-79
2023/11/04 08:35:21;;;;;;;10.07;3.55;;;;;;;7.72;100.00;98081.69;4993987;28;20049;-79
2023/11/04 08:37:46;;;;;;;18.38;4.63;;;;;;;7.71;100.00;98077.41;4995476;28;20033;-78
2023/11/04 08:40:12;;;;;;;8.18;4.13;;;;;;;7.78;100.00;98073.00;4995456;28;20363;-79
2023/11/04 08:42:37;;;;;;;10.43;3.78;;;;;;;7.86;100.00;98070.19;4995160;28;20034;-79
2023/11/04 08:45:02;;;;;;;12.18;3.95;;;;;;;7.91;100.00;98073.13;4977869;28;20045;-78
2023/11/04 08:47:28;;;;;;;9.35;3.72;;;;;;;8.01;100.00;98071.97;4994318;28;20467;-79
2023/11/04 08:49:53;;;;;;;14.57;3.50;;;;;;;8.02;100.00;98077.06;4993865;28;20030;-78
2023/11/04 08:52:18;;;;;;;12.90;3.30;;;;;;;8.02;100.00;98061.19;4994464;28;20041;-78
2023/11/04 08:54:44;;;;;;;14.70;3.33;;;;;;;8.03;100.00;98065.50;4996326;28;20475;-77
2023/11/04 08:57:09;;;;;;;9.15;3.22;;;;;;;8.00;100.00;98060.56;4994539;28;20042;-77
2023/11/04 08:59:35;;;;;;;11.63;3.10;;;;;;;8.05;100.00;98050.22;4977767;28;20489;-77
2023/11/04 09:02:00;;;;;;;11.95;2.97;;;;;;;8.10;100.00;98050.44;4994346;28;20104;-78
2023/11/04 09:04:27;;;;;;;11.80;2.70;;;;;;;8.19;100.00;98042.38;4995002;28;20117;-79
2023/11/04 09:06:53;;;;;;;10.82;2.67;;;;;;;8.39;100.00;98031.91;4994528;28;20108;-77
2023/11/04 09:09:21;;;;;;;9.55;3.03;;;;;;;8.47;100.00;98016.72;4995311;28;20450;-80
2023/11/04 09:11:47;;;;;;;13.13;3.22;;;;;;;8.53;100.00;98024.91;4995402;28;20119;-78
2023/11/04 09:14:12;;;;;;;8.88;2.80;;;;;;;8.55;100.00;98031.66;4994870;28;20473;-79
2023/11/04 09:16:38;;;;;;;10.50;2.53;;;;;;;8.44;100.00;98030.34;4993621;28;20058;-77
2023/11/04 09:19:03;;;;;;;13.13;3.17;;;;;;;8.47;100.00;98015.91;4994825;28;20042;-79
2023/11/04 09:21:29;;;;;;;6.95;2.60;;;;;;;8.45;100.00;98004.69;4994720;28;20030;-77
2023/11/04 09:23:55;;;;;;;9.75;2.88;;;;;;;8.47;100.00;98000.00;4993802;28;20034;-77
2023/11/04 09:26:20;;;;;;;9.30;3.20;;;;;;;8.50;100.00;97996.16;4995103;28;20038;-76
2023/11/04 09:28:46;;;;;;;13.45;3.97;;;;;;;8.58;100.00;97996.00;4994513;28;20478;-76
2023/11/04 09:31:13;;;;;;;12.00;2.35;;;;;;;8.58;100.00;97990.69;4994501;28;20062;-79
2023/11/04 09:33:38;;;;;;;11.40;2.80;;;;;;;8.65;100.00;97992.34;4994582;28;20045;-77
2023/11/04 09:36:04;;;;;;;12.43;2.55;;;;;;;8.72;100.00;97973.00;4994952;28;20038;-77
2023/11/04 09:38:29;;;;;;;9.48;2.38;;;;;;;8.70;100.00;97975.84;4993459;28;20045;-78
2023/11/04 09:40:56;;;;;;;8.27;2.38;;;;;;;8.67;100.00;97970.16;4995078;28;20066;-78
2023/11/04 09:43:22;;;;;;;11.07;2.42;;;;;;;8.63;100.00;97965.25;4994934;28;20443;-78
2023/11/04 09:45:48;;;;;;;7.90;2.45;;;;;;;8.55;100.00;97961.94;5009742;28;20145;-76
2023/11/04 09:48:13;;;;;;;10.45;2.22;;;;;;;8.58;100.00;97954.44;4994021;28;20521;-79
2023/11/04 09:50:39;;;;;;;12.98;2.70;;;;;;;8.59;100.00;97961.34;4994387;28;20080;-78
2023/11/04 09:53:13;;;;;;;7.28;2.72;;;;;;;8.52;100.00;97957.84;4993007;28;20080;-77
2023/11/04 09:55:39;;;;;;;11.98;2.80;;;;;;;8.56;100.00;97945.84;4994679;28;20029;-78
2023/11/04 09:58:04;;;;;;;8.40;1.92;;;;;;;8.53;100.00;97940.13;4993667;28;20050;-78
2023/11/04 10:00:32;;;;;;;7.43;2.58;;;;;;;8.60;100.00;97940.97;4994246;28;20049;-76
2023/11/04 10:02:58;;;;;;;9.55;2.00;;;;;;;8.62;100.00;97929.13;4994262;28;20081;-78
2023/11/04 10:05:25;;;;;;;7.07;2.00;;;;;;;8.58;100.00;97916.47;4994231;28;20030;-76
2023/11/04 10:07:51;;;;;;;5.20;1.77;;;;;;;8.53;100.00;97913.63;4994122;28;20037;-76
2023/11/04 10:10:17;;;;;;;6.63;2.20;;;;;;;8.50;100.00;97906.06;4993707;28;20390;-75
2023/11/04 10:12:42;;;;;;;6.57;2.55;;;;;;;8.45;100.00;97898.72;4993581;28;20449;-74
2023/11/04 10:15:08;;;;;;;7.03;1.98;;;;;;;8.47;100.00;97892.19;4994001;28;20474;-75
2023/11/04 10:17:35;;;;;;;8.05;1.83;;;;;;;8.41;100.00;97886.84;4993995;28;20391;-76
2023/11/04 10:20:07;;;;;;;7.00;1.83;;;;;;;8.40;100.00;97879.88;4993905;28;20026;-76
2023/11/04 10:22:33;;;;;;;6.20;2.17;;;;;;;8.37;100.00;97875.78;4994241;28;20073;-77
2023/11/04 10:25:00;;;;;;;8.40;1.70;;;;;;;8.37;100.00;97869.69;4992762;28;20078;-75
2023/11/04 10:27:25;;;;;;;8.43;1.58;;;;;;;8.34;100.00;97862.13;4992575;28;20143;-76
2023/11/04 10:29:53;;;;;;;5.95;1.70;;;;;;;8.33;100.00;97856.03;4994017;28;20534;-77
2023/11/04 10:32:20;;;;;;;8.50;2.63;;;;;;;8.34;100.00;97849.69;4993855;28;20026;-77
2023/11/04 10:34:46;;;;;;;9.63;1.90;;;;;;;8.31;100.00;97844.78;4993574;28;20046;-76
2023/11/04 10:37:18;;;;;;;7.78;2.03;;;;;;;8.32;100.00;97846.44;4993514;28;20039;-77
2023/11/04 10:39:47;;;;;;;6.57;1.80;;;;;;;8.29;100.00;97831.75;4993732;28;20463;-77
2023/11/04 10:42:14;;;;;;;8.32;1.83;;;;;;;8.24;100.00;97823.59;4993806;28;20077;-76
2023/11/04 10:44:48;;;;;;;6.60;2.20;;;;;;;8.21;100.00;97812.56;4993503;28;20474;-75
2023/11/04 10:47:31;;;;;;;4.68;1.55;;;;;;;8.14;100.00;97811.75;4993743;28;20030;-77
2023/11/04 10:50:15;;;;;;;8.50;2.17;;;;;;;8.21;100.00;97794.03;4993565;28;20057;-77
2023/11/04 10:53:06;;;;;;;7.97;1.90;;;;;;;8.27;100.00;97801.16;4993750;28;20035;-77
2023/11/04 10:55:36;;;;;;;;;;;;;;;8.29;100.00;97785.91;4992218;28;20050;-78
2023/11/04 10:58:07;;;;;;;7.88;1.88;;;;;;;8.26;100.00;97771.22;4994376;28;19918;-76
2023/11/04 11:00:35;;;;;;;8.57;1.75;;;;;;;8.23;100.00;97763.69;4993542;28;20481;-77
2023/11/04 11:03:01;;;;;;;5.65;1.90;;;;;;;8.11;100.00;97766.09;4993730;28;20065;-77
2023/11/04 11:05:29;;;;;;;4.28;1.52;;;;;;;8.04;100.00;97754.63;4993795;28;20038;-76
2023/11/04 11:07:55;;;;;;;2.97;1.25;;;;;;;7.89;100.00;97752.13;4993903;28;20117;-81
2023/11/04 11:10:25;;;;;;;3.33;1.40;;;;;;;7.74;100.00;97739.03;4993638;28;20070;-82
2023/11/04 11:12:53;;;;;;;3.58;1.40;;;;;;;7.63;100.00;97728.19;4993655;28;20084;-78
2023/11/04 11:15:19;;;;;;;4.63;1.50;;;;;;;7.45;100.00;97713.69;4993284;28;20030;-77
2023/11/04 11:18:01;;;;;;;5.88;1.52;;;;;;;7.34;100.00;97708.91;4992398;28;20038;-80
2023/11/04 11:20:32;;;;;;;5.38;2.15;;;;;;;7.26;100.00;97701.97;4993311;28;20034;-79
2023/11/04 11:22:58;;;;;;;;;;;;;;;7.17;100.00;97689.91;4994192;28;20069;-76
2023/11/04 11:25:34;;;;;;;5.07;1.05;;;;;;;7.12;100.00;97669.34;4996041;28;19953;-77